createdAt,value
2023-04-12T03:15:05.985Z,65.66
2023-04-12T03:17:32.632Z,66.59
2023-04-12T03:20:10.299Z,65.35
2023-04-12T03:22:37.414Z,64.74
2023-04-12T03:25:57.248Z,63.89
2023-04-12T03:28:45.820Z,64.86
2023-04-12T03:45:31.117Z,64.42
2023-04-12T03:47:58.231Z,64.93
2023-04-12T03:50:44.170Z,64.96
2023-04-12T03:53:11.927Z,64.66
2023-04-12T03:55:38.823Z,63.15
2023-04-12T03:58:05.467Z,62.89
2023-04-12T04:01:22.051Z,62.58
2023-04-12T04:04:10.504Z,62.67
2023-04-12T04:06:37.606Z,63.10
2023-04-12T04:09:04.448Z,63.69
2023-04-12T04:11:31.918Z,63.76
2023-04-12T04:45:03.785Z,62.21
2023-04-12T04:47:31.015Z,63.34
2023-04-12T04:50:00.078Z,63.06
2023-04-12T04:52:26.834Z,63.28
2023-04-12T04:54:57.602Z,63.68
2023-04-12T04:57:26.778Z,63.09
2023-04-12T04:59:53.322Z,62.83
2023-04-12T05:02:19.978Z,62.33
2023-04-12T05:04:46.593Z,61.97
2023-04-12T05:07:14.354Z,62.11
2023-04-12T05:09:41.252Z,61.71
2023-04-12T05:12:08.078Z,61.45
2023-04-12T05:14:46.709Z,61.59
2023-04-12T05:17:16.961Z,60.54
2023-04-12T05:19:44.862Z,59.54
2023-04-12T05:22:11.590Z,59.30
2023-04-12T05:24:38.340Z,59.08
2023-04-12T05:27:04.949Z,59.01
2023-04-12T05:29:31.767Z,59.38
2023-04-12T05:31:59.500Z,59.50
2023-04-12T05:34:26.354Z,59.41
2023-04-12T05:36:52.957Z,59.60
2023-04-12T05:39:20.686Z,58.42
2023-04-12T05:41:47.609Z,58.19
2023-04-12T05:44:14.331Z,57.25
2023-04-12T05:46:41.099Z,57.20
2023-04-12T05:49:08.033Z,56.16
2023-04-12T05:51:41.052Z,55.27
2023-04-12T05:54:08.281Z,54.46
2023-04-12T05:56:50.216Z,54.63
2023-04-12T05:59:18.733Z,53.95
2023-04-12T06:01:45.746Z,54.10
2023-04-12T06:04:12.819Z,54.90
2023-04-12T06:06:39.484Z,54.61
2023-04-12T06:09:06.175Z,54.43
2023-04-12T06:11:36.023Z,53.69
2023-04-12T06:16:44.606Z,53.20
2023-04-12T06:19:11.295Z,52.11
2023-04-12T06:21:37.932Z,52.49
2023-04-12T06:24:04.707Z,51.84
2023-04-12T06:26:38.910Z,53.01
2023-04-12T06:29:53.914Z,52.49
2023-04-12T06:32:54.813Z,52.36
2023-04-12T06:35:24.723Z,53.82
2023-04-12T06:37:51.322Z,54.01
2023-04-12T06:40:18.064Z,53.00
2023-04-12T06:42:44.689Z,51.03
2023-04-12T06:45:12.045Z,50.29
2023-04-12T06:47:38.649Z,50.59
2023-04-12T06:50:06.995Z,52.10
2023-04-12T06:52:33.547Z,52.42
2023-04-12T06:55:00.282Z,51.50
2023-04-12T06:57:26.899Z,52.13
2023-04-12T06:59:53.497Z,53.18
2023-04-12T07:02:20.408Z,52.54
2023-04-12T07:04:47.425Z,52.73
2023-04-12T07:07:13.985Z,53.22
2023-04-12T07:09:40.742Z,52.07
2023-04-12T07:12:07.595Z,52.18
2023-04-12T07:14:34.564Z,51.71
2023-04-12T07:17:01.204Z,51.60
2023-04-12T07:19:29.743Z,51.33
2023-04-12T07:21:56.326Z,51.21
2023-04-12T07:24:22.866Z,51.47
2023-04-12T07:26:49.514Z,51.33
2023-04-12T07:29:17.345Z,50.09
2023-04-12T07:31:44.092Z,50.36
2023-04-12T07:34:10.940Z,49.46
2023-04-12T07:36:37.830Z,49.77
2023-04-12T07:39:11.880Z,49.36
2023-04-12T07:41:39.094Z,49.21
2023-04-12T07:44:06.264Z,48.93
2023-04-12T07:46:32.848Z,49.08
2023-04-12T07:48:59.636Z,49.18
2023-04-12T07:51:26.893Z,48.83
2023-04-12T07:53:53.459Z,47.89
2023-04-12T07:56:20.087Z,46.98
2023-04-12T07:58:46.740Z,46.95
2023-04-12T08:01:14.924Z,46.93
2023-04-12T08:06:17.669Z,46.84
2023-04-12T08:08:44.977Z,46.34
2023-04-12T08:11:26.803Z,46.48
2023-04-12T08:19:49.372Z,45.38
2023-04-12T08:22:18.655Z,45.03
2023-04-12T08:24:45.395Z,45.40
2023-04-12T08:27:13.911Z,46.24
2023-04-12T08:29:40.587Z,44.28
2023-04-12T08:32:09.411Z,43.02
2023-04-12T08:34:37.590Z,43.45
2023-04-12T08:37:04.228Z,42.30
2023-04-12T08:39:34.081Z,42.04
2023-04-12T08:42:00.951Z,41.75
2023-04-12T08:44:39.258Z,41.63
2023-04-12T08:47:09.507Z,42.18
2023-04-12T08:49:36.657Z,41.63
2023-04-12T08:52:08.612Z,41.82
2023-04-12T08:54:35.999Z,39.09
2023-04-12T08:57:08.637Z,38.65
2023-04-12T08:59:38.904Z,37.94
2023-04-12T09:02:05.794Z,37.99
2023-04-12T09:04:32.680Z,37.18
2023-04-12T09:06:59.330Z,35.72
2023-04-12T09:09:47.046Z,34.50
2023-04-12T09:12:15.444Z,33.85
2023-04-12T09:14:45.437Z,32.40
2023-04-12T09:17:25.892Z,32.09
2023-04-12T09:19:53.462Z,32.88
2023-04-12T09:22:32.771Z,33.90
2023-04-12T09:24:59.331Z,34.88
2023-04-12T09:27:28.421Z,38.41
2023-04-12T09:30:10.135Z,35.95
2023-04-12T09:32:37.286Z,36.94
2023-04-12T09:35:05.730Z,36.19
2023-04-12T09:37:32.530Z,35.91
2023-04-12T09:40:01.209Z,35.60
2023-04-12T09:42:33.350Z,36.62
2023-04-12T09:45:02.920Z,36.42
2023-04-12T09:50:33.711Z,35.64
2023-04-12T09:53:04.338Z,35.29
2023-04-12T09:55:32.721Z,35.84
2023-04-12T09:58:03.890Z,35.62
2023-04-12T10:00:34.048Z,35.30
2023-04-12T10:03:17.060Z,35.34
2023-04-12T10:06:34.730Z,35.63
2023-04-12T10:09:14.507Z,37.25
2023-04-12T10:11:44.699Z,35.01
2023-04-12T10:14:11.952Z,35.43
2023-04-12T10:16:40.451Z,34.35
2023-04-12T10:19:08.794Z,34.48
2023-04-12T10:21:35.549Z,34.53
2023-04-12T10:24:02.387Z,34.82
2023-04-12T10:26:29.363Z,34.79
2023-04-12T10:29:25.759Z,34.51
2023-04-12T10:31:53.650Z,36.93
2023-04-12T10:34:25.933Z,32.74
2023-04-12T10:36:56.115Z,32.36
2023-04-12T10:39:57.967Z,33.53
2023-04-12T10:42:27.476Z,32.27
2023-04-12T10:45:17.807Z,33.05
2023-04-12T10:47:50.369Z,32.12
2023-04-12T10:50:26.907Z,31.06
2023-04-12T10:53:20.595Z,31.32
2023-04-12T10:55:47.778Z,31.72
2023-04-12T10:58:50.167Z,31.36
2023-04-12T11:01:18.753Z,30.85
2023-04-12T11:04:16.852Z,30.29
2023-04-12T11:06:59.122Z,29.81
2023-04-12T11:09:27.750Z,30.99
2023-04-12T11:12:08.800Z,31.14
2023-04-12T11:14:37.327Z,30.44
2023-04-12T11:17:06.595Z,31.00
2023-04-12T11:19:34.210Z,30.63
2023-04-12T11:22:02.367Z,30.10
2023-04-12T11:24:29.272Z,29.46
2023-04-12T11:26:56.926Z,28.88
2023-04-12T11:29:24.364Z,29.67
2023-04-12T11:31:51.109Z,29.53
2023-04-12T11:34:19.243Z,29.82
2023-04-12T11:36:47.103Z,28.73
2023-04-12T11:39:14.198Z,29.55
2023-04-12T11:41:45.310Z,30.21
2023-04-12T11:44:13.916Z,29.69
2023-04-12T11:46:40.733Z,28.99
2023-04-12T11:49:07.360Z,28.87
2023-04-12T11:51:35.790Z,29.88
2023-04-12T11:56:50.722Z,28.94
2023-04-12T11:59:17.308Z,29.51
2023-04-12T12:01:43.916Z,29.60
2023-04-12T12:05:08.507Z,28.81
2023-04-12T12:08:01.415Z,28.65
2023-04-12T12:10:43.680Z,27.94
2023-04-12T12:13:14.128Z,27.91
2023-04-12T12:15:45.423Z,27.39
2023-04-12T12:18:12.233Z,27.51
2023-04-12T12:20:49.699Z,27.09
2023-04-12T12:25:54.371Z,27.87
2023-04-12T12:28:24.573Z,27.77
2023-04-12T12:30:58.109Z,27.01
2023-04-12T12:37:33.762Z,26.47
2023-04-12T12:40:13.894Z,26.78
2023-04-12T12:42:55.124Z,26.41
2023-04-12T12:45:24.011Z,26.61
2023-04-12T12:47:52.129Z,28.15
2023-04-12T12:50:25.182Z,26.59
2023-04-12T12:52:53.637Z,26.56
2023-04-12T12:55:21.658Z,30.17
2023-04-12T12:58:05.489Z,26.71
2023-04-12T13:00:33.816Z,28.08
2023-04-12T13:03:00.700Z,27.41
2023-04-12T13:05:27.605Z,29.82
2023-04-12T13:07:54.147Z,31.77
2023-04-12T13:10:21.771Z,27.34
2023-04-12T13:12:49.199Z,26.25
2023-04-12T13:18:02.703Z,26.46
2023-04-12T13:20:29.349Z,26.73
2023-04-12T13:22:56.174Z,26.50
2023-04-12T13:25:22.930Z,26.55
2023-04-12T13:27:51.033Z,26.84
2023-04-12T13:30:18.661Z,25.98
2023-04-12T13:32:45.702Z,26.65
2023-04-12T13:35:13.013Z,25.90
2023-04-12T13:37:39.833Z,25.74
2023-04-12T13:40:07.450Z,25.96
2023-04-12T13:42:34.462Z,26.69
2023-04-12T13:45:01.544Z,27.87
2023-04-12T13:47:28.204Z,27.75
2023-04-12T13:49:54.847Z,26.64
2023-04-12T13:52:21.542Z,26.17
2023-04-12T13:54:48.654Z,26.84
2023-04-12T13:57:15.251Z,26.41
2023-04-12T13:59:41.839Z,26.46
2023-04-12T14:02:08.593Z,27.57
2023-04-12T14:04:35.672Z,26.85
2023-04-12T14:07:02.357Z,26.17
2023-04-12T14:09:32.076Z,26.42
2023-04-12T14:12:00.241Z,26.09
2023-04-12T14:14:27.569Z,26.02
2023-04-12T14:16:58.753Z,25.71
2023-04-12T14:19:25.566Z,25.47
2023-04-12T14:21:52.333Z,24.60
2023-04-12T14:24:20.305Z,25.96
2023-04-12T14:26:48.528Z,26.15
2023-04-12T14:29:15.499Z,25.98
2023-04-12T14:31:42.212Z,28.05
2023-04-12T14:34:10.757Z,26.83
2023-04-12T14:36:37.770Z,26.49
2023-04-12T14:39:05.926Z,27.20
2023-04-12T14:41:34.352Z,26.81
2023-04-12T14:44:01.477Z,26.60
2023-04-12T14:46:28.710Z,26.53
2023-04-12T14:48:57.358Z,25.64
2023-04-12T14:51:24.162Z,26.14
2023-04-12T14:53:51.027Z,28.03
2023-04-12T14:56:24.289Z,28.66
2023-04-12T14:58:55.856Z,26.27
2023-04-12T15:01:24.023Z,26.75
2023-04-12T15:03:54.402Z,28.53
2023-04-12T15:06:23.124Z,26.71
2023-04-12T15:08:57.220Z,28.90
2023-04-12T15:11:27.090Z,28.35
2023-04-12T15:13:54.908Z,27.65
2023-04-12T15:16:21.967Z,29.02
2023-04-12T15:18:50.643Z,26.40
2023-04-12T15:21:17.510Z,25.42
2023-04-12T15:23:45.013Z,24.89
2023-04-12T15:26:14.081Z,26.71
2023-04-12T15:28:40.909Z,27.67
2023-04-12T15:31:11.962Z,26.78
2023-04-12T15:33:38.641Z,26.45
2023-04-12T15:36:05.680Z,24.71
2023-04-12T15:38:32.717Z,25.84
2023-04-12T15:41:01.309Z,24.93
2023-04-12T15:43:28.798Z,24.61
2023-04-12T15:45:56.319Z,25.18
2023-04-12T15:48:24.414Z,25.42
2023-04-12T15:51:05.504Z,24.87
2023-04-12T15:53:35.689Z,25.64
2023-04-12T15:56:09.058Z,25.39
2023-04-12T15:58:35.612Z,24.56
2023-04-12T16:01:02.665Z,24.33
2023-04-12T16:03:31.664Z,23.68
2023-04-12T16:05:58.426Z,24.40
2023-04-12T16:08:27.238Z,24.49
2023-04-12T16:10:56.758Z,24.64
2023-04-12T16:13:23.620Z,24.03
2023-04-12T16:15:50.509Z,23.70
2023-04-12T16:18:17.419Z,23.88
2023-04-12T16:20:45.145Z,24.70
2023-04-12T16:23:12.041Z,23.91
2023-04-12T16:25:40.536Z,25.63
2023-04-12T16:28:08.566Z,24.19
2023-04-12T16:30:36.388Z,25.44
2023-04-12T16:33:03.322Z,26.68
2023-04-12T16:35:30.020Z,25.98
2023-04-12T16:37:56.812Z,25.61
2023-04-12T16:40:24.682Z,26.87
2023-04-12T16:42:54.484Z,27.84
2023-04-12T16:45:22.748Z,27.95
2023-04-12T16:47:51.230Z,28.38
2023-04-12T16:50:24.353Z,28.73
2023-04-12T16:52:55.746Z,28.99
2023-04-12T16:55:22.772Z,29.40
2023-04-12T16:57:53.198Z,29.79
2023-04-12T17:00:21.486Z,30.50
2023-04-12T17:02:53.380Z,30.55
2023-04-12T17:05:21.958Z,32.27
2023-04-12T17:07:51.460Z,32.46
2023-04-12T17:10:19.885Z,33.52
2023-04-12T17:12:48.302Z,32.77
2023-04-12T17:15:17.287Z,32.32
2023-04-12T17:17:50.449Z,31.36
2023-04-12T17:20:19.244Z,32.79
2023-04-12T17:22:46.890Z,33.83
2023-04-12T17:25:14.001Z,33.30
2023-04-12T17:27:42.674Z,33.30
2023-04-12T17:30:12.170Z,30.94
2023-04-12T17:32:40.391Z,31.07
2023-04-12T17:35:07.560Z,31.16
2023-04-12T17:37:35.659Z,31.44
2023-04-12T17:40:04.401Z,32.10
2023-04-12T17:42:31.154Z,32.78
2023-04-12T17:44:57.939Z,32.95
2023-04-12T17:47:24.679Z,33.17
2023-04-12T17:49:51.308Z,33.25
2023-04-12T17:52:17.948Z,33.43
2023-04-12T17:54:44.846Z,33.82
2023-04-12T17:57:11.532Z,34.40
2023-04-12T17:59:38.225Z,34.36
2023-04-12T18:02:05.205Z,34.48
2023-04-12T18:04:32.178Z,34.64
2023-04-12T18:06:59.268Z,35.02
2023-04-12T18:09:29.052Z,35.26
2023-04-12T18:11:56.594Z,35.65
2023-04-12T18:14:25.319Z,36.69
2023-04-12T18:16:51.959Z,36.79
2023-04-12T18:19:19.286Z,37.25
2023-04-12T18:21:49.621Z,37.77
2023-04-12T18:24:17.022Z,37.70
2023-04-12T18:26:47.007Z,37.82
2023-04-12T18:29:16.078Z,38.69
2023-04-12T18:31:45.229Z,38.53
2023-04-12T18:34:12.142Z,38.36
2023-04-12T18:36:39.550Z,38.79
2023-04-12T18:39:08.083Z,39.10
2023-04-12T18:41:34.984Z,39.35
2023-04-12T18:44:01.857Z,39.16
2023-04-12T18:46:32.085Z,39.61
2023-04-12T18:49:00.154Z,39.75
2023-04-12T18:51:26.853Z,40.20
2023-04-12T18:53:53.518Z,39.90
2023-04-12T18:56:24.437Z,40.10
2023-04-12T18:58:55.485Z,40.26
2023-04-12T19:01:23.544Z,40.57
2023-04-12T19:03:50.440Z,41.09
2023-04-12T19:06:17.552Z,41.29
2023-04-12T19:11:19.380Z,42.57
2023-04-12T19:13:46.101Z,42.85
2023-04-12T19:16:12.804Z,42.05
2023-04-12T19:18:39.462Z,42.54
2023-04-12T19:21:06.637Z,42.66
2023-04-12T19:24:10.691Z,42.97
2023-04-12T19:27:03.547Z,43.12
2023-04-12T19:29:30.115Z,43.12
2023-04-12T19:31:57.937Z,43.72
2023-04-12T19:34:24.646Z,43.98
2023-04-12T19:36:51.192Z,43.97
2023-04-12T19:39:18.580Z,44.26
2023-04-12T19:41:48.436Z,45.07
2023-04-12T19:44:15.383Z,44.95
2023-04-12T19:46:42.020Z,45.55
2023-04-12T19:49:09.571Z,45.53
2023-04-12T19:51:36.643Z,46.37
2023-04-12T19:54:04.615Z,45.78
2023-04-12T19:56:31.707Z,45.88
2023-04-12T19:58:58.673Z,45.65
2023-04-12T20:01:26.865Z,46.80
2023-04-12T20:03:53.625Z,46.99
2023-04-12T20:06:20.360Z,46.89
2023-04-12T20:08:47.004Z,46.52
2023-04-12T20:11:13.970Z,46.20
2023-04-12T20:13:40.684Z,46.03
2023-04-12T20:16:07.514Z,45.87
2023-04-12T20:18:34.118Z,45.95
2023-04-12T20:21:00.677Z,46.26
2023-04-12T20:23:28.096Z,46.93
2023-04-12T20:25:55.623Z,47.26
2023-04-12T20:29:16.011Z,47.85
2023-04-12T20:31:58.014Z,47.70
2023-04-12T20:34:26.590Z,49.55
2023-04-12T20:36:55.995Z,47.78
2023-04-12T20:39:23.983Z,48.07
2023-04-12T20:41:51.485Z,48.71
2023-04-12T20:44:19.621Z,48.58
2023-04-12T20:49:35.999Z,49.86
2023-04-12T20:52:02.606Z,50.69
2023-04-12T20:54:33.243Z,49.86
2023-04-12T20:57:20.022Z,49.44
2023-04-12T21:00:33.905Z,50.01
2023-04-12T21:03:04.172Z,50.28
2023-04-12T21:05:34.626Z,50.28
2023-04-12T21:08:02.183Z,50.15
2023-04-12T21:10:29.864Z,49.52
2023-04-12T21:12:58.249Z,49.44
2023-04-12T21:15:24.872Z,49.63
2023-04-12T21:17:52.361Z,49.73
2023-04-12T21:20:19.059Z,49.88
2023-04-12T21:22:47.842Z,50.28
2023-04-12T21:25:16.561Z,50.72
2023-04-12T21:30:16.768Z,50.96
2023-04-12T21:32:43.922Z,50.87
2023-04-12T21:35:11.748Z,51.07
2023-04-12T21:37:39.432Z,51.52
2023-04-12T21:40:09.352Z,52.53
2023-04-12T21:43:19.811Z,51.84
2023-04-12T21:46:11.924Z,52.36
2023-04-12T21:48:38.526Z,52.55
2023-04-12T21:51:05.440Z,52.07
2023-04-12T21:53:31.997Z,52.57
2023-04-12T21:55:59.620Z,52.67
2023-04-12T21:58:29.699Z,52.83
2023-04-12T22:00:58.215Z,52.91
2023-04-12T22:03:26.152Z,53.47
2023-04-12T22:06:14.341Z,52.90
2023-04-12T22:08:43.999Z,52.14
2023-04-12T22:11:13.457Z,52.17
2023-04-12T22:13:41.580Z,52.34
2023-04-12T22:16:14.442Z,53.11
2023-04-12T22:18:42.395Z,51.44
2023-04-12T22:21:09.766Z,51.21
2023-04-12T22:23:38.786Z,51.68
2023-04-12T22:26:09.203Z,50.66
2023-04-12T22:28:37.900Z,50.16
2023-04-12T22:31:29.244Z,50.48
2023-04-12T22:34:25.518Z,50.97
2023-04-12T22:37:13.553Z,50.36
2023-04-12T22:39:40.402Z,49.99
2023-04-12T22:42:06.975Z,49.95
2023-04-12T22:44:38.375Z,49.75
2023-04-12T22:47:25.279Z,49.78
2023-04-12T22:49:54.621Z,49.26
2023-04-12T22:52:24.637Z,49.63
2023-04-12T22:54:51.230Z,49.64
2023-04-12T22:57:17.800Z,49.17
2023-04-12T22:59:44.417Z,49.50
2023-04-12T23:02:11.109Z,50.75
2023-04-12T23:04:37.782Z,49.64
2023-04-12T23:07:04.898Z,49.23
2023-04-12T23:09:32.921Z,50.34
2023-04-12T23:13:04.603Z,49.90
2023-04-12T23:15:50.956Z,50.00
2023-04-12T23:18:17.551Z,51.18
2023-04-12T23:20:44.883Z,49.49
2023-04-12T23:23:11.479Z,49.11
2023-04-12T23:25:41.748Z,46.80
2023-04-12T23:28:14.141Z,46.69
2023-04-12T23:31:01.724Z,47.04
2023-04-12T23:33:28.408Z,46.92
2023-04-12T23:36:02.757Z,47.09
2023-04-12T23:38:33.779Z,46.84
2023-04-12T23:41:32.183Z,47.22
2023-04-12T23:44:35.969Z,47.01
2023-04-12T23:47:02.531Z,46.91
2023-04-12T23:49:29.149Z,48.08
2023-04-12T23:51:55.711Z,47.87
2023-04-12T23:54:22.354Z,47.81
2023-04-12T23:56:48.932Z,47.80
2023-04-12T23:59:35.422Z,47.22
